Terminal Aerodrome Forecast
Issued by NWS Paducah, KY

Home | Current Version | Previous Version | Text Only | Print | Product List | Glossary On
Versions: 1 2 3 4 5 6 7 8 9 10 11 12 13 14 15 16 17 18 19 20 21
005
FTUS43 KPAH 160544
TAFPAH
TAF
KPAH 160544Z 1606/1706 10005KT 2SM BR OVC003
     FM160630 08004KT 1/2SM -DZ FG OVC002
     FM161400 15009KT 5SM BR OVC012
     FM162300 17011KT 5SM -SHRA BR BKN015
     FM170300 19012KT 6SM -SHRA BR OVC007=

USA.gov is the U.S. government's official web portal to all federal, state and local government web resources and services.